Middletown, Rhode Island
Current Conditions -  °F | °C
As of 8:53 AM on Wednesday 22 Oct 2014 (Local Time) from KUUU Reporting Station
Overcast Overcast  
Wind Chill: 57°   Ceiling: 500
Heat Index: 57°   Visibility: 10mi
Dew Point: 53°   Wind: 10mph
Humidity: 87%   Direction: 10°N
Pressure: 29.95"   Gusts: NA
Location:  41.55°N, 71.29°W
Report Text: KUUU 221253Z AUTO 01009KT 10SM OVC005 14/12 A2995 RMK AO2 CIG 003V009 SLP140 T01390117
Loading
Personal Weather Stations






























Interactive Weather Map
Tropical Storm Tracking
New forecast layout! Learn more

10-Day Weather Forecast

Advertisements
Track Severe Weather on mobile